Sutton, ND (58484)

04:45 PM CDT die 28o July, anno 2015 (GMT -0500)
APRSWXNET | | Change Station
CLOSE
Current Station
Personal Weather Stations
Location: Binford, ND
Elevation: 1519 ft
Nearby Weather Stations
Active Advisory: Wind Advisory

Elev 1519 ft 47.56 °N, 98.34 °W | Updated 20 minutes ago

Plerumque Nubila
Plerumque Nubila
73 °F
Feels Like 76 °F
N
11
Ventus Variabilis Ventus from Inter Austrum et Zephyrum
Gusts 24.0 mph

Hodie
High -- | Low -- °F
--% Chance of Precip.
Yesterday
High -- | Low -- °F
Precip. -- in
6:06 AM 9:12 PM
Waxing Gibbous, 91% visible
Pressio 29.70 in
Visibilitas 10.0 milia passuum
Clouds Plerumque Nubila 6500 ft
Index Caloris 76 °F
Frigus in quo Ros apparet 61 °F
Umor 67%
Rainfall in
Snow Depth Not available.
UV 4 out of 12
Pollen 2.80 out of 12
Air Quality Not available.
Flu Activity Not available.
METAR KJMS 282056Z AUTO 26019G26KT 10SM BKN065 23/11 A2971 RMK AO2 PK WND 23036/2021 SLP055 T02280106 53001

More Conditions Fewer Conditions

Pressio 29.70 in
Visibilitas 10.0 milia passuum
Clouds Plerumque Nubila 6500 ft
Index Caloris 76 °F
Frigus in quo Ros apparet 61 °F
Umor 67%
Rainfall in
Snow Depth Not available.
UV 4 out of 12
Pollen 2.80 out of 12
Air Quality Not available.
Flu Activity Not available.
METAR KJMS 282056Z AUTO 26019G26KT 10SM BKN065 23/11 A2971 RMK AO2 PK WND 23036/2021 SLP055 T02280106 53001

More Conditions Fewer Conditions

10-Day Weather Forecast

×

Almanac

Astronomy

Jul. 28, 2015 Rise Set
Actual Time
Civil Twilight
Nautical Twilight
Astronomical Twilight
Moon
Length Of Visible Light
Length of Day
Tomorrow will be .
, % of the Moon is Illuminated

Today's Extremes

State Highs State Lows

Community

WunderPhotos

Upload Photos

1,841,948 photos uploaded!

WunderBlogs® & News

Nearby

Air Quality

  Air Quality AQ Index Pollutant
Not available.

Snow Depth

Station Depth Elevation

Earthquake Activity

City Distance Mag. Time & Date
Minimum magnitude displayed is 2.5.

Coastal Water Temperatures

Locus Calor

Stations

Nearby Weather Stations

Station Location Temp Frigus Venti Frigus in quo Ros apparet Umor Ventus Precip. Elev Renovata Type
                   
Wind Advisory
Statement as of 02:55 PM CDT die 28o July, anno 2015

... Wind Advisory remains in effect until 11 PM CDT this evening...

* winds... southwest 30 to 35 mph with gusts up to 50 mph.

* Timing... rest of this afternoon through this evening.

Precautionary/preparedness actions...

A Wind Advisory means that winds of 35 mph are expected. Winds
this strong can make driving difficult... especially for high
profile vehicles. Use extra caution.